Latest Coastal Weather Observations for Robe Airport

IDV60701

Issued at 7:55 am EST Wednesday 3 September 2014 (issued every 10 minutes, with the page automatically refreshed every 10 minutes)

About coastal observations | Map of coastal stations | Coastal observations for VIC | Marine services | Other Formats
Station Details ID: 026105 Name: ROBE AIRFIELD Lat: -37.18 Lon: 139.81 Height: 3.0 m
Data from the previous 72 hours. | See also: Recent months at Robe Airport
Date/Time
EST
Temp

°C
Wind Pressure Rain
since 9am
mm
Weather Cloud Vis
km
Sea
Height
m
Swell
Dir
 
Speed
knots
Gust
knots
hPa Trend Height
m
Period
s
Dir
03/07:30am 5.4 CALM 0 0 1025.0 - 0.0 - - - - - - -
03/07:00am 5.2 NNE 2 2 1024.9 - 0.0 - - - - - - -
03/06:30am 5.8 NNE 2 2 1024.9 - 0.0 - - - - - - -
03/06:00am 5.6 CALM 0 0 1024.9 - 0.0 - - - - - - -
03/05:30am 6.2 CALM 0 0 1024.8 - 0.0 - - - - - - -
03/05:00am 5.8 CALM 0 0 1024.8 - 0.0 - - - - - - -
03/04:30am 5.5 CALM 0 0 1024.7 - 0.0 - - - - - - -
03/04:00am 4.3 CALM 0 0 1024.6 - 0.0 - - - - - - -
03/03:30am 4.1 NE 2 3 1024.9 - 0.0 - - - - - - -
03/03:00am 4.4 CALM 0 0 1025.2 - 0.0 - - - - - - -
03/02:30am 4.7 CALM 0 0 1025.7 - 0.0 - - - - - - -
03/02:00am 5.1 CALM 0 0 1026.1 - 0.0 - - - - - - -
03/01:30am 3.2 CALM 0 0 1026.2 - 0.0 - - - - - - -
03/01:00am 4.8 NE 0 0 1026.4 - 0.0 - - - - - - -
03/12:30am 4.5 NE 0 0 1026.3 - 0.0 - - - - - - -
03/12:00am 5.1 CALM 0 1 1026.5 - 0.0 - - - - - - -
 
Date/Time
EST
Temp

°C
Wind Pressure Rain
since 9am
mm
Weather Cloud Vis
km
Sea
Height
m
Swell
Dir
 
Speed
knots
Gust
knots
hPa Trend Height
m
Period
s
Dir
02/11:30pm 5.3 NE 1 4 1026.7 - 0.0 - - - - - - -
02/11:00pm 4.8 CALM 0 0 1026.8 - 0.0 - - - - - - -
02/10:30pm 6.9 SW 1 2 1026.9 - 0.0 - - - - - - -
02/10:00pm 6.9 SSW 4 5 1026.7 - 0.0 - - - - - - -
02/09:30pm 7.5 SSW 3 4 1026.7 - 0.0 - - - - - - -
02/09:00pm 7.7 SSW 4 6 1026.6 - 0.0 - - - - - - -
02/08:30pm 8.7 SSW 4 5 1026.8 - 0.0 - - - - - - -
02/08:00pm 9.5 S 6 8 1026.5 - 0.0 - - - - - - -
02/07:30pm 9.9 S 5 7 1026.2 - 0.0 - - - - - - -
02/07:00pm 10.1 S 6 8 1026.1 - 0.0 - - - - - - -
02/06:30pm 10.1 S 6 9 1026.0 - 0.0 - - - - - - -
02/06:00pm 11.3 S 10 15 1025.7 - 0.0 - - - - - - -
02/05:30pm 11.1 S 10 14 1025.3 - 0.0 - - - - - - -
02/05:00pm 11.9 S 15 19 1025.0 - 0.0 - - - - - - -
02/04:30pm 12.6 S 15 21 1024.6 - 0.0 - - - - - - -
02/04:00pm 12.7 S 15 23 1024.4 - 0.0 - - - - - - -
02/03:30pm 13.1 S 16 21 1024.4 - 0.0 - - - - - - -
02/03:00pm 13.5 S 15 19 1024.5 - 0.0 - - - - - - -
02/02:30pm 13.8 S 14 22 1024.2 - 0.0 - - - - - - -
02/02:00pm 13.4 S 14 18 1024.1 - 0.0 - - - - - - -
02/01:30pm 13.9 SSW 14 18 1024.2 - 0.0 - - - - - - -
02/01:00pm 13.8 S 13 18 1024.4 - 0.0 - - - - - - -
02/12:30pm 13.9 S 14 19 1024.3 - 0.0 - - - - - - -
02/12:00pm 14.3 S 13 18 1024.3 - 0.0 - - - - - - -
02/11:30am 13.7 S 13 17 1024.3 - 0.0 - - - - - - -
02/11:00am 13.4 SSW 10 16 1024.3 - 0.0 - - - - - - -
02/10:30am 13.3 S 13 17 1024.3 - 0.0 - - - - - - -
02/10:00am 12.1 ESE 4 6 1024.3 - 0.0 - - - - - - -
02/09:30am 12.2 SSE 4 6 1024.2 - 14.6 - - - - - - -
02/09:00am 11.3 SSE 7 11 1024.1 - 14.6 - - - - - - -
02/08:30am 10.4 S 9 14 1023.5 - 14.6 - - - - - - -
02/08:00am 10.2 S 8 13 1022.9 - 14.6 - - - - - - -
02/07:30am 8.8 S 8 10 1022.5 - 14.6 - - - - - - -
02/07:00am 8.6 S 7 9 1022.0 - 14.6 - - - - - - -
02/06:30am 8.8 SSW 5 8 1021.5 - 12.6 Rain - - - - - -
02/06:00am 9.4 SSE 8 11 1020.8 - 11.2 - - - - - - -
02/05:30am 9.5 SSE 13 20 1020.1 - 11.2 - - - - - - -
02/05:00am 9.4 S 7 9 1019.7 - 10.8 - - - - - - -
02/04:30am 9.6 S 8 11 1019.2 - 10.8 - - - - - - -
02/04:00am 9.5 S 11 15 1018.7 - 10.8 - - - - - - -
02/03:30am 8.8 SSW 5 8 1018.7 - 10.4 Recent precip. - - - - - -
02/03:00am 8.7 SW 5 7 1018.7 - 10.4 - - - - - - -
02/02:30am 7.9 SW 4 6 1018.4 - 10.2 - - - - - - -
02/02:00am 8.6 S 3 - 1018.1 - - - - - - - - -
02/01:30am 9.0 SW 10 14 1018.2 - 9.0 - - - - - - -
02/01:00am 9.3 SSW 11 16 1017.8 - 7.4 - - - - - - -
02/12:30am 7.6 WNW 1 2 1017.5 - 7.4 - - - - - - -
02/12:00am 7.3 WNW 2 3 1017.3 - 7.4 - - - - - - -
 
Date/Time
EST
Temp

°C
Wind Pressure Rain
since 9am
mm
Weather Cloud Vis
km
Sea
Height
m
Swell
Dir
 
Speed
knots
Gust
knots
hPa Trend Height
m
Period
s
Dir
01/11:30pm 7.6 NW 2 3 1017.1 - 7.4 - - - - - - -
01/11:00pm 8.8 NW 3 4 1017.0 - 7.4 - - - - - - -
01/10:30pm 8.6 CALM 0 1 1016.8 - 7.4 - - - - - - -
01/10:00pm 9.0 SW 2 4 1016.6 - 7.2 - - - - - - -
01/09:30pm 9.3 SW 9 14 1016.4 - 6.0 Rain - - - - - -
01/09:00pm 9.6 WSW 4 7 1016.0 - 5.0 - - - - - - -
01/08:30pm 10.1 SW 9 12 1015.5 - 4.8 - - - - - - -
01/08:00pm 10.4 S 6 8 1015.1 - 4.6 - - - - - - -
01/07:30pm 9.8 SSW 5 7 1014.7 - 4.6 - - - - - - -
01/07:00pm 9.4 SSW 3 5 1014.1 - 4.6 - - - - - - -
01/06:30pm 10.3 SSW 4 5 1013.9 - 4.6 - - - - - - -
01/06:00pm 11.2 SSW 6 9 1013.6 - 4.6 - - - - - - -
01/05:30pm 12.1 SW 6 9 1013.2 - 4.6 - - - - - - -
01/05:00pm 12.6 SW 9 14 1012.9 - 4.6 - - - - - - -
01/04:30pm 13.7 SW 11 17 1012.7 - 4.6 - - - - - - -
01/04:00pm 13.8 SW 10 14 1012.3 - 4.6 - - - - - - -
01/03:30pm 14.1 SW 10 15 1012.1 - 4.6 - - - - - - -
01/03:00pm 14.3 SSW 9 14 1012.0 - 4.6 - - - - - - -
01/02:30pm 14.1 SW 11 17 1011.9 - 4.6 - - - - - - -
01/02:00pm 13.3 SSW 10 16 1011.7 - 4.6 - - - - - - -
01/01:30pm 12.9 SSW 11 14 1011.8 - 4.6 - - - - - - -
01/01:00pm 12.8 SSW 12 18 1011.8 - 4.6 - - - - - - -
01/12:30pm 13.6 SSW 13 17 1011.7 - 4.6 Recent precip. - - - - - -
01/12:00pm 11.9 SW 9 13 1011.6 - 4.6 - - - - - - -
01/11:30am 13.0 SSW 10 13 1011.5 - 4.2 - - - - - - -
01/11:00am 11.7 S 8 11 1011.6 - 4.2 - - - - - - -
01/10:30am 11.3 SSW 10 15 1011.5 - 3.8 - - - - - - -
01/10:00am 13.3 W 5 7 1011.2 - 0.0 - - - - - - -
01/09:30am 12.5 WNW 4 6 1010.9 - 5.2 - - - - - - -
01/09:00am 13.1 W 3 4 1010.7 - 5.2 - - - - - - -
01/08:30am 12.3 W 3 6 1010.5 - 5.2 - - - - - - -
01/08:00am 11.8 WSW 4 6 1010.1 - 5.2 - - - - - - -
01/07:30am 11.2 W 3 5 1009.8 - 5.2 - - - - - - -
01/07:00am 11.4 W 4 6 1009.6 - 5.2 - - - - - - -
01/06:30am 11.5 WSW 5 8 1009.3 - 5.2 - - - - - - -
01/06:00am 11.6 WSW 5 7 1009.1 - 5.2 - - - - - - -
01/05:30am 12.2 WSW 6 10 1008.8 - 5.2 - - - - - - -
01/05:00am 12.4 WSW 5 10 1008.6 - 5.0 - - - - - - -
01/04:30am 12.9 WSW 6 12 1008.2 - 5.0 - - - - - - -
01/04:00am 13.1 WSW 5 10 1007.9 - 5.0 - - - - - - -
01/03:30am 13.7 WNW 6 9 1008.2 - 5.0 Rain - - - - - -
01/03:00am 13.4 NNW 8 11 1008.2 - 4.8 - - - - - - -
01/02:30am 13.6 WNW 7 10 1008.6 - 4.8 - - - - - - -
01/02:00am 13.5 WNW 10 13 1008.9 - 4.8 - - - - - - -
01/01:30am 12.9 WNW 5 7 1009.1 - 4.8 - - - - - - -
01/01:00am 12.5 WNW 4 6 1009.0 - 4.8 - - - - - - -
01/12:30am 13.0 WNW 7 12 1009.0 - 4.4 Rain - - - - - -
01/12:00am 13.5 W 7 13 1008.3 - 2.4 - - - - - - -
 
Date/Time
EST
Temp

°C
Wind Pressure Rain
since 9am
mm
Weather Cloud Vis
km
Sea
Height
m
Swell
Dir
 
Speed
knots
Gust
knots
hPa Trend Height
m
Period
s
Dir
31/11:30pm 13.6 WNW 7 11 1008.5 - 1.2 - - - - - - -
31/11:00pm 13.5 WNW 8 13 1009.2 - 0.0 - - - - - - -
31/10:30pm 14.1 W 6 11 1008.8 - 0.0 - - - - - - -
31/10:00pm 14.4 WNW 6 8 1009.0 - 0.0 - - - - - - -
31/09:30pm 13.9 NNW 5 8 1008.8 - 0.0 - - - - - - -
31/09:00pm 13.7 N 4 6 1008.7 - 0.0 - - - - - - -
31/08:30pm 14.2 NNW 6 7 1009.1 - 0.0 - - - - - - -
31/08:00pm 13.4 N 4 5 1009.1 - 0.0 - - - - - - -
31/07:30pm 13.2 N 3 4 1009.5 - 0.0 - - - - - - -
31/07:00pm 14.0 NNW 3 4 1009.8 - 0.0 - - - - - - -
31/06:30pm 15.3 WNW 5 8 1009.6 - 0.0 - - - - - - -
31/06:00pm 15.7 WNW 7 9 1009.7 - 0.0 - - - - - - -
31/05:30pm 16.4 NW 9 13 1009.7 - 0.0 - - - - - - -
31/05:00pm 17.7 NW 10 14 1009.6 - 0.0 - - - - - - -
31/04:30pm 18.3 N 10 13 1008.4 - 0.0 - - - - - - -
31/04:00pm 17.1 NNW 11 15 1009.6 - 0.0 - - - - - - -
31/03:30pm 17.1 NNW 12 16 1010.0 - 0.0 - - - - - - -
31/03:00pm 17.7 NNW 14 18 1010.5 - 0.0 - - - - - - -
31/02:30pm 18.1 NNW 15 20 1010.4 - 0.0 - - - - - - -
31/02:00pm 19.3 NNW 17 23 1010.7 - 0.0 - - - - - - -
31/01:30pm 20.0 N 18 24 1010.8 - 0.0 - - - - - - -
31/01:00pm 20.5 N 19 26 1011.0 - 0.0 - - - - - - -
31/12:30pm 19.8 N 16 22 1011.6 - 0.0 - - - - - - -
31/12:00pm 18.7 N 15 22 1012.1 - 0.0 - - - - - - -
31/11:58am 18.7 N 15 25 1012.1 - 0.0 - - - - - - -
31/11:30am 18.3 N 14 20 1012.5 - 0.0 - - - - - - -
31/11:00am 18.3 N 14 19 1012.6 - 0.0 - - - - - - -
31/10:30am 17.3 N 11 16 1013.1 - 0.0 - - - - - - -
31/10:00am 16.1 N 10 15 1013.5 - 0.0 - - - - - - -
31/09:30am 15.4 N 11 15 1013.8 - 0.0 - - - - - - -
31/09:00am 14.6 N 11 14 1013.9 - 0.0 - - - - - - -
31/08:30am 13.8 N 10 13 1013.9 - 0.0 - - - - - - -

Other Formats:

Comma delimited format used in spreadsheet applications
http://www.bom.gov.au/fwo/IDV60701/IDV60701.95816.axf

JavaScript Object Notation format (JSON) in row-major order
http://www.bom.gov.au/fwo/IDV60701/IDV60701.95816.json